Time,TemperatureF,DewpointF,PressureIn,WindDirection,WindDirectionDegrees,WindSpeedMPH,WindSpeedGustMPH,Humidity,HourlyPrecipIn,Conditions,Clouds,dailyrainin,SoftwareType,DateUTC
2013-02-25 08:03:00,72.0,65.0,29.80,SE,146,11.0,19.0,80,0.00,,,0.00,,2013-02-25 14:03:00,
2013-02-25 08:17:00,72.0,65.0,29.80,SE,146,11.0,19.0,80,0.00,,,0.00,,2013-02-25 14:17:00,
2013-02-25 08:32:00,74.0,66.0,29.80,SSE,147,12.0,25.0,77,0.00,,,0.00,,2013-02-25 14:32:00,
2013-02-25 08:42:00,74.0,66.0,29.80,SSE,147,12.0,25.0,77,0.00,,,0.00,,2013-02-25 14:42:00,
2013-02-25 08:52:00,74.0,66.0,29.80,South,171,15.0,24.0,76,0.00,,,0.00,,2013-02-25 14:52:00,
2013-02-25 09:02:00,75.0,66.0,29.80,South,190,17.0,26.0,73,0.00,,,0.00,,2013-02-25 15:02:00,
2013-02-25 09:11:00,75.0,66.0,29.80,South,190,17.0,26.0,73,0.00,,,0.00,,2013-02-25 15:11:00,
2013-02-25 09:21:00,75.0,67.0,29.80,SSE,161,14.0,28.0,76,0.00,,,0.00,,2013-02-25 15:21:00,
2013-02-25 09:32:00,75.0,67.0,29.80,SE,129,18.0,29.0,75,0.00,,,0.00,,2013-02-25 15:32:00,
2013-02-25 09:41:00,75.0,67.0,29.80,SE,129,18.0,29.0,75,0.00,,,0.00,,2013-02-25 15:41:00,
2013-02-25 09:51:00,76.0,67.0,29.80,SE,144,15.0,27.0,74,0.00,,,0.00,,2013-02-25 15:51:00,
2013-02-25 10:02:00,76.0,66.0,29.80,ESE,112,18.0,29.0,72,0.00,,,0.00,,2013-02-25 16:02:00,
2013-02-25 10:12:00,76.0,66.0,29.80,ESE,112,18.0,29.0,72,0.00,,,0.00,,2013-02-25 16:12:00,
2013-02-25 10:21:00,76.0,67.0,29.79,SE,138,20.0,30.0,73,0.00,,,0.00,,2013-02-25 16:21:00,
2013-02-25 10:32:00,76.0,66.0,29.79,South,180,19.0,30.0,72,0.00,,,0.00,,2013-02-25 16:32:00,
2013-02-25 10:42:00,76.0,66.0,29.79,South,180,19.0,30.0,72,0.00,,,0.00,,2013-02-25 16:42:00,
2013-02-25 10:51:00,77.0,67.0,29.79,SE,140,15.0,26.0,72,0.00,,,0.00,,2013-02-25 16:51:00,
2013-02-25 11:01:00,77.0,67.0,29.78,SE,144,18.0,30.0,72,0.00,,,0.00,,2013-02-25 17:01:00,
2013-02-25 11:11:00,77.0,67.0,29.78,SE,144,18.0,30.0,72,0.00,,,0.00,,2013-02-25 17:11:00,
2013-02-25 11:21:00,77.0,67.0,29.78,SSE,165,17.0,27.0,71,0.00,,,0.00,,2013-02-25 17:21:00,
2013-02-25 11:32:00,77.0,67.0,29.77,SE,140,20.0,25.0,71,0.00,,,0.00,,2013-02-25 17:32:00,
2013-02-25 11:42:00,77.0,67.0,29.77,SE,140,20.0,25.0,71,0.00,,,0.00,,2013-02-25 17:42:00,
2013-02-25 11:52:00,77.0,68.0,29.77,SSE,157,14.0,28.0,73,0.00,,,0.00,,2013-02-25 17:52:00,
2013-02-25 12:01:00,77.0,67.0,29.76,South,174,19.0,30.0,72,0.00,,,0.00,,2013-02-25 18:01:00,
2013-02-25 12:12:00,77.0,67.0,29.76,South,174,19.0,30.0,72,0.00,,,0.00,,2013-02-25 18:12:00,
2013-02-25 12:21:00,77.0,67.0,29.76,ESE,122,16.0,27.0,71,0.00,,,0.00,,2013-02-25 18:21:00,
2013-02-25 12:32:00,77.0,67.0,29.75,SE,139,16.0,30.0,71,0.00,,,0.00,,2013-02-25 18:32:00,
2013-02-25 12:42:00,77.0,67.0,29.75,SE,139,16.0,30.0,71,0.00,,,0.00,,2013-02-25 18:42:00,
2013-02-25 12:51:00,77.0,67.0,29.74,SSE,152,12.0,31.0,71,0.00,,,0.00,,2013-02-25 18:51:00,
2013-02-25 13:01:00,77.0,67.0,29.74,SE,130,15.0,31.0,72,0.00,,,0.00,,2013-02-25 19:01:00,
2013-02-25 13:11:00,77.0,67.0,29.74,SE,130,15.0,31.0,72,0.00,,,0.00,,2013-02-25 19:11:00,
2013-02-25 13:21:00,77.0,67.0,29.73,SE,137,18.0,30.0,71,0.00,,,0.00,,2013-02-25 19:21:00,
2013-02-25 13:32:00,78.0,67.0,29.72,SE,130,13.0,25.0,70,0.00,,,0.00,,2013-02-25 19:32:00,
2013-02-25 13:42:00,78.0,67.0,29.72,SE,130,13.0,25.0,70,0.00,,,0.00,,2013-02-25 19:42:00,
2013-02-25 13:52:00,79.0,67.0,29.72,SE,142,19.0,28.0,66,0.00,,,0.00,,2013-02-25 19:52:00,
2013-02-25 14:01:00,78.0,67.0,29.71,SE,132,11.0,29.0,69,0.00,,,0.00,,2013-02-25 20:01:00,
2013-02-25 14:11:00,78.0,67.0,29.71,SE,132,11.0,29.0,69,0.00,,,0.00,,2013-02-25 20:11:00,
2013-02-25 14:21:00,79.0,68.0,29.71,SE,127,14.0,25.0,68,0.00,,,0.00,,2013-02-25 20:21:00,
2013-02-25 14:32:00,78.0,67.0,29.71,SE,134,18.0,28.0,68,0.00,,,0.00,,2013-02-25 20:32:00,
2013-02-25 14:42:00,78.0,67.0,29.71,SE,134,18.0,28.0,68,0.00,,,0.00,,2013-02-25 20:42:00,
2013-02-25 14:52:00,78.0,67.0,29.70,SSE,158,17.0,27.0,68,0.00,,,0.00,,2013-02-25 20:52:00,
2013-02-25 15:01:00,78.0,67.0,29.70,SSE,167,15.0,27.0,68,0.00,,,0.00,,2013-02-25 21:01:00,
2013-02-25 15:11:00,78.0,67.0,29.70,SSE,167,15.0,27.0,68,0.00,,,0.00,,2013-02-25 21:11:00,
2013-02-25 15:21:00,79.0,68.0,29.70,SE,142,14.0,24.0,68,0.00,,,0.00,,2013-02-25 21:21:00,
2013-02-25 15:32:00,78.0,67.0,29.70,South,169,11.0,23.0,70,0.00,,,0.00,,2013-02-25 21:32:00,
2013-02-25 15:42:00,78.0,67.0,29.70,South,169,11.0,23.0,70,0.00,,,0.00,,2013-02-25 21:42:00,
2013-02-25 15:51:00,77.0,66.0,29.70,SSE,149,14.0,24.0,70,0.00,,,0.00,,2013-02-25 21:51:00,
2013-02-25 16:01:00,78.0,68.0,29.70,SE,134,12.0,26.0,71,0.00,,,0.00,,2013-02-25 22:01:00,
2013-02-25 16:11:00,78.0,68.0,29.70,SE,134,12.0,26.0,71,0.00,,,0.00,,2013-02-25 22:11:00,
2013-02-25 16:21:00,78.0,68.0,29.70,ESE,121,14.0,25.0,72,0.00,,,0.00,,2013-02-25 22:21:00,
2013-02-25 16:32:00,77.0,68.0,29.70,SE,136,10.0,23.0,75,0.00,,,0.00,,2013-02-25 22:32:00,
2013-02-25 16:42:00,77.0,68.0,29.70,SE,136,10.0,23.0,75,0.00,,,0.00,,2013-02-25 22:42:00,
2013-02-25 16:51:00,77.0,68.0,29.69,SSE,159,11.0,22.0,75,0.00,,,0.00,,2013-02-25 22:51:00,
2013-02-25 17:01:00,76.0,67.0,29.70,SSE,159,11.0,27.0,75,0.00,,,0.00,,2013-02-25 23:01:00,
2013-02-25 17:11:00,76.0,67.0,29.70,SSE,159,11.0,27.0,75,0.00,,,0.00,,2013-02-25 23:11:00,
2013-02-25 17:22:00,76.0,68.0,29.70,SE,138,10.0,24.0,77,0.00,,,0.00,,2013-02-25 23:22:00,
2013-02-25 17:31:00,77.0,68.0,29.70,ESE,121,14.0,21.0,74,0.00,,,0.00,,2013-02-25 23:31:00,
2013-02-25 17:42:00,77.0,68.0,29.70,ESE,121,14.0,21.0,74,0.00,,,0.00,,2013-02-25 23:42:00,
2013-02-25 17:52:00,76.0,68.0,29.71,SE,132,10.0,19.0,76,0.00,,,0.00,,2013-02-25 23:52:00,
2013-02-25 18:01:00,75.0,68.0,29.71,SSE,157,10.0,18.0,78,0.00,,,0.00,,2013-02-26 00:01:00,
2013-02-25 18:12:00,75.0,68.0,29.71,SSE,157,10.0,18.0,78,0.00,,,0.00,,2013-02-26 00:12:00,
2013-02-25 18:22:00,75.0,68.0,29.71,SE,140,8.0,16.0,78,0.00,,,0.00,,2013-02-26 00:22:00,
2013-02-25 18:32:00,74.0,67.0,29.71,SE,138,8.0,16.0,79,0.00,,,0.00,,2013-02-26 00:32:00,
2013-02-25 18:42:00,74.0,67.0,29.71,SE,138,8.0,16.0,79,0.00,,,0.00,,2013-02-26 00:42:00,
2013-02-25 18:51:00,74.0,67.0,29.71,SE,136,5.0,18.0,80,0.00,,,0.00,,2013-02-26 00:51:00,
2013-02-25 19:02:00,74.0,67.0,29.71,ESE,111,8.0,15.0,80,0.00,,,0.00,,2013-02-26 01:02:00,
2013-02-25 19:11:00,74.0,67.0,29.71,ESE,111,8.0,15.0,80,0.00,,,0.00,,2013-02-26 01:11:00,
2013-02-25 19:21:00,73.0,66.0,29.72,ESE,121,6.0,14.0,80,0.00,,,0.00,,2013-02-26 01:21:00,
2013-02-25 19:31:00,73.0,67.0,29.73,East,101,8.0,16.0,81,0.00,,,0.00,,2013-02-26 01:31:00,
2013-02-25 19:42:00,73.0,67.0,29.73,East,101,8.0,16.0,81,0.00,,,0.00,,2013-02-26 01:42:00,
2013-02-25 19:51:00,73.0,66.0,29.73,SE,129,9.0,16.0,80,0.00,,,0.00,,2013-02-26 01:51:00,
2013-02-25 20:01:00,73.0,67.0,29.74,SE,141,2.0,14.0,81,0.00,,,0.00,,2013-02-26 02:01:00,
2013-02-25 20:11:00,73.0,67.0,29.74,SE,141,2.0,14.0,81,0.00,,,0.00,,2013-02-26 02:11:00,
2013-02-25 20:21:00,73.0,67.0,29.74,SE,146,3.0,16.0,82,0.00,,,0.00,,2013-02-26 02:21:00,
2013-02-25 20:32:00,73.0,67.0,29.75,SE,140,5.0,15.0,82,0.00,,,0.00,,2013-02-26 02:32:00,
2013-02-25 20:42:00,73.0,67.0,29.75,SE,140,5.0,15.0,82,0.00,,,0.00,,2013-02-26 02:42:00,
2013-02-25 20:52:00,73.0,68.0,29.76,SE,135,7.0,16.0,83,0.00,,,0.00,,2013-02-26 02:52:00,
2013-02-25 21:02:00,73.0,68.0,29.77,SE,130,1.0,13.0,83,0.00,,,0.00,,2013-02-26 03:02:00,
2013-02-25 21:11:00,73.0,68.0,29.77,SE,130,1.0,13.0,83,0.00,,,0.00,,2013-02-26 03:11:00,
2013-02-25 21:21:00,73.0,68.0,29.77,ESE,123,5.0,12.0,83,0.00,,,0.00,,2013-02-26 03:21:00,
2013-02-25 21:32:00,73.0,68.0,29.77,SE,132,6.0,14.0,83,0.00,,,0.00,,2013-02-26 03:32:00,
2013-02-25 21:42:00,73.0,68.0,29.77,SE,132,6.0,14.0,83,0.00,,,0.00,,2013-02-26 03:42:00,
2013-02-25 21:52:00,73.0,68.0,29.78,ESE,111,0.0,14.0,83,0.00,,,0.00,,2013-02-26 03:52:00,
2013-02-25 22:01:00,73.0,68.0,29.78,SE,146,6.0,14.0,83,0.00,,,0.00,,2013-02-26 04:01:00,
2013-02-25 22:11:00,73.0,68.0,29.78,SE,146,6.0,14.0,83,0.00,,,0.00,,2013-02-26 04:11:00,
2013-02-25 22:21:00,73.0,68.0,29.78,SE,136,5.0,13.0,83,0.00,,,0.00,,2013-02-26 04:21:00,
2013-02-25 22:32:00,73.0,68.0,29.78,SE,136,5.0,13.0,83,0.00,,,0.00,,2013-02-26 04:32:00,
2013-02-25 22:42:00,73.0,68.0,29.78,SE,136,5.0,13.0,83,0.00,,,0.00,,2013-02-26 04:42:00,
2013-02-25 22:51:00,72.0,67.0,29.78,ESE,123,2.0,13.0,84,0.00,,,0.00,,2013-02-26 04:51:00,
2013-02-25 23:01:00,72.0,67.0,29.77,SE,146,4.0,14.0,84,0.00,,,0.00,,2013-02-26 05:01:00,
2013-02-25 23:12:00,72.0,67.0,29.78,ESE,113,4.0,13.0,85,0.00,,,0.00,,2013-02-26 05:12:00,
2013-02-25 23:21:00,72.0,67.0,29.78,ESE,113,4.0,13.0,85,0.00,,,0.00,,2013-02-26 05:21:00,
2013-02-25 23:32:00,72.0,68.0,29.78,SE,137,8.0,14.0,86,0.00,,,0.00,,2013-02-26 05:32:00,
2013-02-25 23:43:00,72.0,68.0,29.78,SE,137,8.0,14.0,86,0.00,,,0.00,,2013-02-26 05:43:00,
2013-02-25 23:52:00,72.0,68.0,29.78,SE,137,8.0,14.0,86,0.00,,,0.00,,2013-02-26 05:52:00,